Time;durP1;ratioP1;P1;durP2;ratioP2;P2;SDS_P1;SDS_P2;PMS_P1;PMS_P2;Temp;Humidity;BMP_temperature;BMP_pressure;BME280_temperature;BME280_humidity;BME280_pressure;Samples;Min_cycle;Max_cycle;Signal;HPM_P1;HPM_P2
2021/04/26 00:00:09;;;;;;;1999.90;999.90;;;;;;;7.96;73.09;95701.13;5070152;28;20204;-63
2021/04/26 00:02:35;;;;;;;1999.90;999.90;;;;;;;8.02;72.78;95710.41;5070105;28;20299;-64
2021/04/26 00:05:03;;;;;;;1999.90;999.90;;;;;;;7.99;73.02;95700.56;5070096;28;20200;-64
2021/04/26 00:07:29;;;;;;;1999.90;999.90;;;;;;;7.93;73.43;95704.22;5070350;28;20197;-63
2021/04/26 00:09:56;;;;;;;1999.90;999.90;;;;;;;7.92;73.67;95707.88;5069984;28;20196;-63
2021/04/26 00:12:24;;;;;;;1999.90;999.90;;;;;;;7.84;73.94;95711.03;5069688;28;20240;-63
2021/04/26 00:14:51;;;;;;;1999.90;999.90;;;;;;;7.82;73.38;95718.31;5070020;28;20230;-62
2021/04/26 00:17:18;;;;;;;1999.90;999.90;;;;;;;7.83;72.95;95719.84;5069914;28;20203;-63
2021/04/26 00:19:45;;;;;;;1999.90;999.90;;;;;;;7.72;73.36;95722.50;5070230;28;20550;-64
2021/04/26 00:22:12;;;;;;;1999.90;999.90;;;;;;;7.60;73.72;95727.25;5069820;28;20193;-62
2021/04/26 00:24:41;;;;;;;1999.90;999.90;;;;;;;7.60;73.40;95729.81;5070070;28;20309;-63
2021/04/26 00:27:08;;;;;;;1999.90;999.90;;;;;;;7.49;73.62;95736.09;5070023;28;20207;-63
2021/04/26 00:29:35;;;;;;;1999.90;999.90;;;;;;;7.39;74.22;95735.38;5070095;28;20542;-63
2021/04/26 00:32:02;;;;;;;1999.90;999.90;;;;;;;7.28;74.87;95729.47;5070549;28;20206;-63
2021/04/26 00:34:29;;;;;;;1999.90;999.90;;;;;;;7.23;75.11;95735.44;5069926;28;20223;-63
2021/04/26 00:36:56;;;;;;;1999.90;999.90;;;;;;;7.19;75.57;95738.81;5070142;28;20192;-62
2021/04/26 00:39:23;;;;;;;1999.90;999.90;;;;;;;7.11;75.85;95736.78;5069997;28;20452;-62
2021/04/26 00:41:49;;;;;;;1999.90;999.90;;;;;;;7.06;75.72;95737.59;5069954;28;20258;-63
2021/04/26 00:44:16;;;;;;;1999.90;999.90;;;;;;;7.08;76.01;95750.22;5069672;28;20334;-63
2021/04/26 00:46:44;;;;;;;1999.90;999.90;;;;;;;6.96;76.48;95753.13;5070065;28;20224;-64
2021/04/26 00:49:11;;;;;;;1999.90;999.90;;;;;;;7.04;75.53;95754.38;5070422;28;20200;-63
2021/04/26 00:51:37;;;;;;;1999.90;999.90;;;;;;;7.08;74.65;95757.97;5073919;28;20315;-63
2021/04/26 00:54:06;;;;;;;1999.90;999.90;;;;;;;7.03;75.17;95753.59;5073773;28;20738;-63
2021/04/26 00:56:32;;;;;;;1999.90;999.90;;;;;;;7.02;75.42;95756.47;5073869;28;20299;-64
2021/04/26 00:59:00;;;;;;;1999.90;999.90;;;;;;;7.00;75.59;95754.13;5073427;28;20664;-64
2021/04/26 01:01:27;;;;;;;1999.90;999.90;;;;;;;6.91;76.33;95753.91;5073554;28;20188;-64
2021/04/26 01:03:54;;;;;;;1999.90;999.90;;;;;;;6.92;76.30;95762.44;5073578;28;20223;-63
2021/04/26 01:06:21;;;;;;;1999.90;999.90;;;;;;;6.93;76.65;95758.81;5073353;28;20231;-64
2021/04/26 01:08:48;;;;;;;1999.90;999.90;;;;;;;6.82;77.04;95768.38;5073278;28;20196;-64
2021/04/26 01:11:15;;;;;;;1999.90;999.90;;;;;;;6.73;77.10;95761.44;5073098;28;20275;-64
2021/04/26 01:13:56;;;;;;;1999.90;999.90;;;;;;;6.73;77.09;95764.03;5073168;28;20283;-64
2021/04/26 01:16:29;;;;;;;1999.90;999.90;;;;;;;6.53;77.63;95758.88;5073417;28;20595;-63
2021/04/26 01:19:06;;;;;;;1999.90;999.90;;;;;;;6.32;78.13;95763.31;5073179;28;20192;-64
2021/04/26 01:22:17;;;;;;;1999.90;999.90;;;;;;;6.00;77.99;95761.75;5072994;28;20220;-64
2021/04/26 01:24:56;;;;;;;1999.90;999.90;;;;;;;5.84;78.56;95761.97;5062891;28;20204;-64
2021/04/26 01:27:58;;;;;;;1999.90;999.90;;;;;;;5.67;78.47;95767.38;5073296;28;20287;-62
2021/04/26 01:30:32;;;;;;;1999.90;999.90;;;;;;;5.67;81.48;95762.22;5072934;28;20253;-64
2021/04/26 01:33:03;;;;;;;1999.90;999.90;;;;;;;5.78;82.25;95768.91;5072971;28;20254;-63
2021/04/26 01:35:31;;;;;;;1999.90;999.90;;;;;;;5.90;82.64;95766.91;5072652;28;20224;-64
2021/04/26 01:38:03;;;;;;;1999.90;999.90;;;;;;;6.03;82.67;95768.97;5072813;28;20253;-64
2021/04/26 01:40:30;;;;;;;1999.90;999.90;;;;;;;6.12;82.93;95766.69;5072970;28;20204;-64
2021/04/26 01:43:00;;;;;;;1999.90;999.90;;;;;;;6.14;82.45;95768.97;5072915;28;20225;-64
2021/04/26 01:45:28;;;;;;;1999.90;999.90;;;;;;;6.16;82.15;95759.19;5073002;28;20197;-63
2021/04/26 01:47:57;;;;;;;1999.90;999.90;;;;;;;6.17;81.67;95756.38;5072612;28;20199;-64
2021/04/26 01:50:27;;;;;;;1999.90;999.90;;;;;;;6.20;81.27;95760.22;5072392;28;20196;-63
2021/04/26 01:52:55;;;;;;;1999.90;999.90;;;;;;;6.16;81.78;95754.81;5072361;28;20197;-61
2021/04/26 01:55:23;;;;;;;1999.90;999.90;;;;;;;6.14;81.54;95762.03;5072273;28;20231;-64
2021/04/26 01:57:51;;;;;;;1999.90;999.90;;;;;;;6.17;82.21;95760.75;5073153;28;20227;-63
2021/04/26 02:00:21;;;;;;;1999.90;999.90;;;;;;;6.18;81.46;95751.94;5072426;28;20734;-63
2021/04/26 02:02:49;;;;;;;1999.90;999.90;;;;;;;6.01;80.48;95758.16;5071798;28;20196;-63
2021/04/26 02:05:16;;;;;;;1999.90;999.90;;;;;;;5.66;80.44;95747.78;5072002;28;21124;-62
2021/04/26 02:07:49;;;;;;;1999.90;999.90;;;;;;;5.16;82.41;95758.72;5072304;28;20200;-63
2021/04/26 02:10:18;;;;;;;1999.90;999.90;;;;;;;4.96;83.20;95761.97;5072322;28;20200;-63
2021/04/26 02:12:46;;;;;;;1999.90;999.90;;;;;;;4.93;83.67;95765.03;5072216;28;20220;-63
2021/04/26 02:15:16;;;;;;;1999.90;999.90;;;;;;;4.79;84.40;95756.22;5072101;28;20231;-64
2021/04/26 02:17:43;;;;;;;1999.90;999.90;;;;;;;4.80;84.55;95762.16;5072040;28;20193;-62
2021/04/26 02:20:14;;;;;;;1999.90;999.90;;;;;;;4.74;85.89;95756.97;5072023;28;20671;-62
2021/04/26 02:22:41;;;;;;;1999.90;999.90;;;;;;;4.75;85.61;95750.81;5072011;28;20199;-64
2021/04/26 02:25:11;;;;;;;1999.90;999.90;;;;;;;4.84;86.49;95743.38;5072020;28;20197;-63
2021/04/26 02:27:38;;;;;;;1999.90;999.90;;;;;;;4.85;85.55;95754.44;5072008;28;20279;-62
2021/04/26 02:30:06;;;;;;;1999.90;999.90;;;;;;;4.71;86.97;95749.75;5071845;28;20282;-63
2021/04/26 02:32:41;;;;;;;1999.90;999.90;;;;;;;4.68;86.93;95750.25;5071846;28;20587;-63
2021/04/26 02:35:14;;;;;;;1999.90;999.90;;;;;;;4.54;87.32;95761.22;5071752;28;20244;-63
2021/04/26 02:37:45;;;;;;;1999.90;999.90;;;;;;;4.52;88.06;95764.06;5071622;28;20677;-62
2021/04/26 02:40:18;;;;;;;1999.90;999.90;;;;;;;4.45;88.04;95770.44;5071558;28;20197;-62
2021/04/26 02:42:48;;;;;;;1999.90;999.90;;;;;;;4.35;88.36;95773.72;5071617;28;20655;-63
2021/04/26 02:45:20;;;;;;;1999.90;999.90;;;;;;;4.25;87.89;95769.28;5071363;28;20204;-62
2021/04/26 02:47:48;;;;;;;1999.90;999.90;;;;;;;4.14;89.43;95759.91;5071441;28;20200;-64
2021/04/26 02:50:19;;;;;;;1999.90;999.90;;;;;;;4.04;90.34;95770.13;5071446;28;20637;-63
2021/04/26 02:52:48;;;;;;;1999.90;999.90;;;;;;;3.89;91.21;95765.63;5071417;28;20572;-63
2021/04/26 02:55:17;;;;;;;1999.90;999.90;;;;;;;3.91;91.47;95760.25;5071283;28;20228;-64
2021/04/26 02:57:44;;;;;;;1999.90;999.90;;;;;;;3.87;91.01;95764.34;5071115;28;20192;-63
2021/04/26 03:00:14;;;;;;;1999.90;999.90;;;;;;;3.90;90.73;95771.56;5071149;28;20610;-63
2021/04/26 03:02:42;;;;;;;1999.90;999.90;;;;;;;3.88;91.45;95766.69;5071004;28;20196;-63
2021/04/26 03:05:12;;;;;;;1999.90;999.90;;;;;;;3.79;91.84;95773.25;5071368;28;20202;-63
2021/04/26 03:07:43;;;;;;;1999.90;999.90;;;;;;;3.88;91.56;95771.03;5071608;28;20593;-63
2021/04/26 03:10:13;;;;;;;1999.90;999.90;;;;;;;3.84;92.01;95780.22;5071030;28;20193;-63
2021/04/26 03:12:43;;;;;;;1999.90;999.90;;;;;;;3.89;91.40;95785.41;5070275;28;20228;-63
2021/04/26 03:15:16;;;;;;;1999.90;999.90;;;;;;;3.83;91.91;95784.63;5070824;28;20235;-64
2021/04/26 03:17:43;;;;;;;1999.90;999.90;;;;;;;3.86;91.63;95793.63;5071230;28;20221;-63
2021/04/26 03:20:13;;;;;;;1999.90;999.90;;;;;;;3.86;91.19;95791.06;5070987;28;20249;-62
2021/04/26 03:22:41;;;;;;;1999.90;999.90;;;;;;;3.87;91.77;95790.03;5070981;28;20193;-63
2021/04/26 03:25:10;;;;;;;1999.90;999.90;;;;;;;3.97;91.81;95797.84;5070629;28;20199;-63
2021/04/26 03:27:37;;;;;;;1999.90;999.90;;;;;;;3.98;92.04;95796.06;5070758;28;20252;-63
2021/04/26 03:30:07;;;;;;;1999.90;999.90;;;;;;;3.98;91.66;95807.13;5070827;28;20652;-63
2021/04/26 03:32:34;;;;;;;1999.90;999.90;;;;;;;3.94;92.12;95806.03;5070697;28;20249;-62
2021/04/26 03:35:01;;;;;;;1999.90;999.90;;;;;;;3.93;92.30;95804.50;5070364;28;20418;-64
2021/04/26 03:37:29;;;;;;;1999.90;999.90;;;;;;;3.86;91.64;95803.91;5070553;28;20697;-62
2021/04/26 03:39:56;;;;;;;1999.90;999.90;;;;;;;3.88;91.55;95794.94;5070850;28;20297;-62
2021/04/26 03:42:23;;;;;;;1999.90;999.90;;;;;;;3.84;91.33;95806.72;5070344;28;20189;-63
2021/04/26 03:44:51;;;;;;;1999.90;999.90;;;;;;;3.79;90.95;95798.94;5070411;28;20196;-63
2021/04/26 03:47:19;;;;;;;1999.90;999.90;;;;;;;3.80;91.81;95810.78;5070328;28;20707;-64
2021/04/26 03:49:46;;;;;;;1999.90;999.90;;;;;;;3.82;91.23;95816.47;5070230;28;20193;-62
2021/04/26 03:52:13;;;;;;;1999.90;999.90;;;;;;;3.81;90.96;95819.28;5070654;28;20287;-63
2021/04/26 03:54:40;;;;;;;1999.90;999.90;;;;;;;3.73;90.79;95820.50;5070427;28;20227;-63
2021/04/26 03:57:07;;;;;;;1999.90;999.90;;;;;;;3.76;89.88;95808.94;5070220;28;20774;-63
2021/04/26 03:59:34;;;;;;;1999.90;999.90;;;;;;;3.83;90.08;95809.53;5070129;28;20204;-63
2021/04/26 04:02:00;;;;;;;1999.90;999.90;;;;;;;3.78;90.17;95817.22;5070084;28;20203;-63
2021/04/26 04:04:28;;;;;;;1999.90;999.90;;;;;;;4.02;89.98;95813.31;5069934;28;20246;-63
2021/04/26 04:06:55;;;;;;;1999.90;999.90;;;;;;;4.39;90.34;95807.44;5069959;28;20189;-62
2021/04/26 04:09:22;;;;;;;1999.90;999.90;;;;;;;4.77;87.56;95812.34;5070090;28;20207;-63
2021/04/26 04:11:48;;;;;;;1999.90;999.90;;;;;;;5.11;85.95;95821.28;5069608;28;20319;-63
2021/04/26 04:14:15;;;;;;;1999.90;999.90;;;;;;;5.48;83.58;95828.16;5070202;28;20275;-62
2021/04/26 04:16:42;;;;;;;1999.90;999.90;;;;;;;5.68;82.97;95835.94;5069898;28;20299;-63
2021/04/26 04:19:09;;;;;;;1999.90;999.90;;;;;;;5.85;82.15;95851.19;5069915;28;20189;-63
2021/04/26 04:21:36;;;;;;;1999.90;999.90;;;;;;;6.17;81.34;95849.25;5070442;28;20291;-62
2021/04/26 04:24:04;;;;;;;1999.90;999.90;;;;;;;6.58;80.91;95850.03;5069958;28;20503;-64
2021/04/26 04:26:31;;;;;;;1999.90;999.90;;;;;;;7.27;78.76;95849.44;5070085;28;20235;-63
2021/04/26 04:28:59;;;;;;;1999.90;999.90;;;;;;;7.50;76.75;95854.00;5069889;28;20675;-63
2021/04/26 04:31:26;;;;;;;1999.90;999.90;;;;;;;7.77;76.34;95845.88;5069639;28;20689;-64
2021/04/26 04:33:53;;;;;;;1999.90;999.90;;;;;;;8.29;74.18;95847.88;5069706;28;20279;-63
2021/04/26 04:36:20;;;;;;;1999.90;999.90;;;;;;;8.58;73.04;95853.91;5069494;28;20315;-63
2021/04/26 04:38:48;;;;;;;1999.90;999.90;;;;;;;8.60;73.17;95861.41;5069714;28;20257;-64
2021/04/26 04:41:14;;;;;;;1999.90;999.90;;;;;;;8.57;72.10;95865.31;5069530;28;20193;-64
2021/04/26 04:43:41;;;;;;;1999.90;999.90;;;;;;;8.89;71.56;95866.63;5069313;28;20196;-63
2021/04/26 04:46:08;;;;;;;1999.90;999.90;;;;;;;9.28;70.97;95861.31;5069846;28;20204;-63
2021/04/26 04:48:35;;;;;;;1999.90;999.90;;;;;;;9.44;69.92;95862.72;5069482;28;20196;-63
2021/04/26 04:51:04;;;;;;;1999.90;999.90;;;;;;;9.47;69.84;95868.09;5069637;28;20235;-63
2021/04/26 04:53:31;;;;;;;1999.90;999.90;;;;;;;9.45;71.09;95865.03;5069415;28;20203;-64
2021/04/26 04:55:59;;;;;;;1999.90;999.90;;;;;;;9.18;71.26;95869.19;5069337;28;20244;-63
2021/04/26 04:58:26;;;;;;;1999.90;999.90;;;;;;;8.80;72.22;95863.06;5069375;28;20571;-63
2021/04/26 05:00:53;;;;;;;1999.90;999.90;;;;;;;8.62;73.31;95862.69;5069189;28;20219;-64
2021/04/26 05:03:20;;;;;;;1999.90;999.90;;;;;;;8.54;74.18;95852.91;5069317;28;20197;-63
2021/04/26 05:05:47;;;;;;;1999.90;999.90;;;;;;;8.66;76.49;95846.63;5069433;28;20192;-63
2021/04/26 05:08:14;;;;;;;1999.90;999.90;;;;;;;8.71;76.94;95849.16;5069207;28;20707;-63
2021/04/26 05:10:41;;;;;;;1999.90;999.90;;;;;;;8.72;77.11;95856.66;5069155;28;20216;-63
2021/04/26 05:13:09;;;;;;;1999.90;999.90;;;;;;;8.63;77.00;95856.47;5068831;28;20235;-65
2021/04/26 05:15:36;;;;;;;1999.90;999.90;;;;;;;8.57;77.53;95849.78;5069735;28;20228;-63
2021/04/26 05:18:03;;;;;;;1999.90;999.90;;;;;;;8.73;77.70;95844.47;5069551;28;20681;-64
2021/04/26 05:20:30;;;;;;;1999.90;999.90;;;;;;;8.88;77.50;95849.53;5069219;28;20201;-64
2021/04/26 05:22:56;;;;;;;1999.90;999.90;;;;;;;8.89;77.07;95866.63;5069201;28;20232;-64
2021/04/26 05:25:23;;;;;;;1999.90;999.90;;;;;;;8.80;77.59;95878.63;5069033;28;20197;-64
2021/04/26 05:27:50;;;;;;;1999.90;999.90;;;;;;;8.86;77.54;95880.13;5069139;28;20204;-64
2021/04/26 05:30:19;;;;;;;1999.90;999.90;;;;;;;8.67;78.44;95877.41;5069404;28;20204;-64
2021/04/26 05:32:47;;;;;;;1999.90;999.90;;;;;;;8.73;79.30;95867.78;5069131;28;20212;-64
2021/04/26 05:35:14;;;;;;;1999.90;999.90;;;;;;;8.71;77.51;95860.31;5068854;28;20247;-64
2021/04/26 05:37:45;;;;;;;1999.90;999.90;;;;;;;8.66;77.51;95856.97;5071782;28;20283;-64
2021/04/26 05:40:13;;;;;;;1999.90;999.90;;;;;;;9.04;76.44;95859.47;5072778;28;20193;-64
2021/04/26 05:42:40;;;;;;;1999.90;999.90;;;;;;;9.21;71.83;95858.28;5072733;28;20200;-64
2021/04/26 05:45:08;;;;;;;1999.90;999.90;;;;;;;9.39;72.69;95845.38;5072634;28;20749;-64
2021/04/26 05:47:36;;;;;;;1999.90;999.90;;;;;;;9.53;70.86;95850.66;5072870;28;20216;-64
2021/04/26 05:50:03;;;;;;;1999.90;999.90;;;;;;;9.50;69.81;95859.78;5072329;28;20573;-64
2021/04/26 05:52:30;;;;;;;1999.90;999.90;;;;;;;9.55;69.94;95848.56;5072277;28;20224;-64
2021/04/26 05:54:57;;;;;;;1999.90;999.90;;;;;;;9.64;70.53;95852.09;5072204;28;20236;-64
2021/04/26 05:57:23;;;;;;;1999.90;999.90;;;;;;;9.67;71.44;95853.34;5072515;28;20247;-64
2021/04/26 05:59:52;;;;;;;1999.90;999.90;;;;;;;9.68;69.44;95862.69;5072460;28;20200;-64
2021/04/26 06:02:19;;;;;;;1999.90;999.90;;;;;;;10.01;66.69;95848.00;5072029;28;20196;-65
2021/04/26 06:04:47;;;;;;;1999.90;999.90;;;;;;;10.51;66.04;95843.94;5072194;28;20188;-64
2021/04/26 06:07:13;;;;;;;1999.90;999.90;;;;;;;10.81;69.58;95840.06;5072010;28;20203;-64
2021/04/26 06:09:40;;;;;;;1999.90;999.90;;;;;;;11.25;63.40;95850.75;5071987;28;20689;-64
2021/04/26 06:12:08;;;;;;;1999.90;999.90;;;;;;;11.35;64.41;95853.16;5071526;28;20228;-65
2021/04/26 06:14:34;;;;;;;1999.90;999.90;;;;;;;11.66;65.98;95845.50;5071809;28;20319;-65
2021/04/26 06:17:01;;;;;;;1999.90;999.90;;;;;;;11.78;62.71;95845.84;5071877;28;20675;-64
2021/04/26 06:19:28;;;;;;;1999.90;999.90;;;;;;;11.82;64.43;95857.19;5072046;28;20204;-65
2021/04/26 06:21:56;;;;;;;1999.90;999.90;;;;;;;12.00;61.39;95856.28;5071718;28;20199;-65
2021/04/26 06:24:23;;;;;;;1999.90;999.90;;;;;;;12.16;62.42;95841.13;5071604;28;20196;-64
2021/04/26 06:26:50;;;;;;;1999.90;999.90;;;;;;;12.38;60.50;95848.97;5071998;28;20209;-65
2021/04/26 06:29:17;;;;;;;1999.90;999.90;;;;;;;12.34;59.55;95844.66;5071788;28;20295;-65
2021/04/26 06:31:43;;;;;;;1999.90;999.90;;;;;;;12.16;59.13;95848.94;5071619;28;20204;-65
2021/04/26 06:34:10;;;;;;;1999.90;999.90;;;;;;;12.41;59.91;95845.00;5071317;28;20196;-64
2021/04/26 06:36:37;;;;;;;1999.90;999.90;;;;;;;13.00;60.24;95843.06;5071508;28;20293;-65
2021/04/26 06:39:05;;;;;;;1999.90;999.90;;;;;;;12.39;56.73;95847.91;5071816;28;20204;-66
2021/04/26 06:41:32;;;;;;;1999.90;999.90;;;;;;;12.74;59.79;95848.91;5071633;28;20292;-65
2021/04/26 06:43:59;;;;;;;1999.90;999.90;;;;;;;13.06;56.78;95837.41;5071614;28;20232;-65
2021/04/26 06:46:26;;;;;;;1999.90;999.90;;;;;;;13.39;55.15;95839.75;5071495;28;20291;-64
2021/04/26 06:48:53;;;;;;;1999.90;999.90;;;;;;;13.66;52.97;95831.66;5071135;28;20196;-64
2021/04/26 06:51:20;;;;;;;1999.90;999.90;;;;;;;13.86;51.71;95825.88;5071502;28;20192;-64
2021/04/26 06:53:47;;;;;;;1999.90;999.90;;;;;;;13.89;54.48;95806.22;5071422;28;20721;-65
2021/04/26 06:56:16;;;;;;;1999.90;999.90;;;;;;;13.75;53.70;95807.09;5070945;28;20240;-65
2021/04/26 06:58:42;;;;;;;1999.90;999.90;;;;;;;13.96;52.62;95799.44;5071068;28;20203;-64
2021/04/26 07:01:09;;;;;;;1999.90;999.90;;;;;;;13.74;56.12;95808.19;5071015;28;20279;-65
2021/04/26 07:03:36;;;;;;;1999.90;999.90;;;;;;;13.68;52.35;95814.63;5070883;28;20201;-64
2021/04/26 07:06:03;;;;;;;1999.90;999.90;;;;;;;14.07;53.33;95815.59;5070779;28;20667;-65
2021/04/26 07:08:29;;;;;;;1999.90;999.90;;;;;;;13.86;52.58;95822.47;5071139;28;20569;-65
2021/04/26 07:10:56;;;;;;;1999.90;999.90;;;;;;;14.01;56.38;95820.19;5070256;28;20425;-64
2021/04/26 07:13:25;;;;;;;1999.90;999.90;;;;;;;14.46;54.29;95815.47;5070644;28;20224;-65
2021/04/26 07:15:52;;;;;;;1999.90;999.90;;;;;;;14.84;54.67;95820.03;5070563;28;20228;-64
2021/04/26 07:18:19;;;;;;;1999.90;999.90;;;;;;;14.40;51.43;95821.91;5070565;28;20196;-65
2021/04/26 07:20:46;;;;;;;1999.90;999.90;;;;;;;14.49;53.30;95820.09;5070705;28;20193;-65
2021/04/26 07:23:12;;;;;;;1999.90;999.90;;;;;;;14.74;51.63;95820.34;5071203;28;20197;-64
2021/04/26 07:25:40;;;;;;;1999.90;999.90;;;;;;;14.70;49.53;95828.03;5070724;28;20224;-65
2021/04/26 07:28:07;;;;;;;1999.90;999.90;;;;;;;14.90;46.73;95818.75;5070939;28;20193;-64
2021/04/26 07:30:34;;;;;;;1999.90;999.90;;;;;;;15.12;53.09;95829.03;5070493;28;20207;-64
2021/04/26 07:33:02;;;;;;;1999.90;999.90;;;;;;;15.06;51.11;95828.41;5070844;28;20205;-64
2021/04/26 07:35:29;;;;;;;1999.90;999.90;;;;;;;15.17;50.11;95828.84;5070996;28;20584;-64
2021/04/26 07:37:56;;;;;;;1999.90;999.90;;;;;;;15.24;47.59;95825.75;5070763;28;20654;-64
2021/04/26 07:40:22;;;;;;;1999.90;999.90;;;;;;;15.06;53.86;95825.03;5070320;28;20241;-64
2021/04/26 07:42:49;;;;;;;1999.90;999.90;;;;;;;14.89;50.55;95818.03;5070533;28;20193;-65
2021/04/26 07:45:19;;;;;;;1999.90;999.90;;;;;;;15.23;51.19;95814.50;5070303;28;20709;-64
2021/04/26 07:47:48;;;;;;;1999.90;999.90;;;;;;;15.24;48.46;95823.88;5070361;28;20645;-65
2021/04/26 07:50:15;;;;;;;1999.90;999.90;;;;;;;15.09;47.04;95816.56;5070303;28;20196;-65
2021/04/26 07:52:42;;;;;;;1999.90;999.90;;;;;;;15.30;46.31;95816.63;5070441;28;20193;-64
2021/04/26 07:55:09;;;;;;;1999.90;999.90;;;;;;;15.49;47.89;95809.91;5070159;28;20227;-64
2021/04/26 07:57:36;;;;;;;1999.90;999.90;;;;;;;15.39;46.77;95805.03;5070150;28;20196;-64
2021/04/26 08:00:04;;;;;;;1999.90;999.90;;;;;;;15.62;49.16;95797.69;5069735;28;20235;-63
2021/04/26 08:02:31;;;;;;;1999.90;999.90;;;;;;;15.71;50.72;95798.41;5070436;28;20227;-65
2021/04/26 08:04:59;;;;;;;1999.90;999.90;;;;;;;15.78;48.74;95797.91;5070408;28;20196;-63
2021/04/26 08:07:26;;;;;;;1999.90;999.90;;;;;;;16.17;53.32;95802.72;5070066;28;20199;-64
2021/04/26 08:09:52;;;;;;;1999.90;999.90;;;;;;;16.35;45.97;95804.09;5070041;28;20197;-65
2021/04/26 08:12:20;;;;;;;1999.90;999.90;;;;;;;16.29;46.70;95799.38;5069722;28;20259;-64
2021/04/26 08:14:48;;;;;;;1999.90;999.90;;;;;;;16.22;48.45;95797.28;5069938;28;20274;-64
2021/04/26 08:17:15;;;;;;;1999.90;999.90;;;;;;;16.35;46.97;95800.72;5070305;28;20197;-64
2021/04/26 08:19:42;;;;;;;1999.90;999.90;;;;;;;16.79;49.09;95794.00;5070280;28;20204;-64
2021/04/26 08:22:10;;;;;;;1999.90;999.90;;;;;;;17.10;46.85;95796.91;5069954;28;20622;-64
2021/04/26 08:24:37;;;;;;;1999.90;999.90;;;;;;;17.18;47.59;95793.41;5069825;28;20195;-64
2021/04/26 08:27:03;;;;;;;1999.90;999.90;;;;;;;16.99;48.21;95792.38;5069953;28;20212;-64
2021/04/26 08:29:30;;;;;;;1999.90;999.90;;;;;;;17.03;49.25;95786.19;5070007;28;20292;-64
2021/04/26 08:31:57;;;;;;;1999.90;999.90;;;;;;;17.41;49.66;95782.47;5070160;28;20648;-64
2021/04/26 08:34:24;;;;;;;1999.90;999.90;;;;;;;17.55;50.74;95786.28;5070043;28;20212;-65
2021/04/26 08:36:51;;;;;;;1999.90;999.90;;;;;;;17.86;46.50;95796.25;5070011;28;20303;-64
2021/04/26 08:39:19;;;;;;;1999.90;999.90;;;;;;;17.97;49.41;95789.44;5069911;28;20283;-64
2021/04/26 08:41:46;;;;;;;1999.90;999.90;;;;;;;18.21;45.40;95788.59;5069659;28;20250;-65
2021/04/26 08:44:14;;;;;;;1999.90;999.90;;;;;;;17.96;42.07;95795.03;5069823;28;20653;-63
2021/04/26 08:46:44;;;;;;;1999.90;999.90;;;;;;;18.07;43.39;95796.09;5069873;28;20663;-62
2021/04/26 08:49:11;;;;;;;1999.90;999.90;;;;;;;17.90;43.59;95785.81;5069815;28;20203;-65
2021/04/26 08:51:39;;;;;;;1999.90;999.90;;;;;;;17.64;45.50;95779.06;5069600;28;20192;-65
2021/04/26 08:54:08;;;;;;;1999.90;999.90;;;;;;;17.65;42.95;95774.59;5069703;28;20204;-64
2021/04/26 08:56:36;;;;;;;1999.90;999.90;;;;;;;18.01;47.00;95779.00;5069618;28;20232;-64
2021/04/26 08:59:04;;;;;;;1999.90;999.90;;;;;;;17.93;40.65;95783.28;5069822;28;20271;-64
2021/04/26 09:01:31;;;;;;;1999.90;999.90;;;;;;;18.23;42.36;95777.75;5069923;28;20630;-63
2021/04/26 09:04:05;;;;;;;1999.90;999.90;;;;;;;18.43;41.23;95774.91;5069560;28;20276;-65
2021/04/26 09:06:49;;;;;;;1999.90;999.90;;;;;;;18.68;43.15;95772.19;5069560;28;20628;-65
2021/04/26 09:09:33;;;;;;;1999.90;999.90;;;;;;;18.84;41.55;95773.72;5069689;28;20243;-64
2021/04/26 09:12:01;;;;;;;1999.90;999.90;;;;;;;19.01;40.97;95769.25;5071374;28;20257;-63
2021/04/26 09:14:35;;;;;;;1999.90;999.90;;;;;;;18.83;39.24;95769.56;5073158;28;20231;-61
2021/04/26 09:17:27;;;;;;;1999.90;999.90;;;;;;;19.29;40.53;95767.28;5073464;28;20215;-64
2021/04/26 09:19:55;;;;;;;1999.90;999.90;;;;;;;19.04;36.38;95766.69;5073226;28;20208;-63
2021/04/26 09:22:42;;;;;;;1999.90;999.90;;;;;;;19.10;38.00;95762.69;5073242;28;20185;-63
2021/04/26 09:25:33;;;;;;;1999.90;999.90;;;;;;;19.37;34.19;95755.03;5073123;28;20667;-62
2021/04/26 09:28:08;;;;;;;1999.90;999.90;;;;;;;19.51;32.52;95756.13;5073272;28;20282;-64
2021/04/26 09:30:44;;;;;;;1999.90;999.90;;;;;;;19.57;29.88;95765.31;5072892;28;20690;-64
2021/04/26 09:33:27;;;;;;;1999.90;999.90;;;;;;;19.20;30.20;95761.41;5073089;28;20200;-63
2021/04/26 09:36:15;;;;;;;1999.90;999.90;;;;;;;19.46;35.13;95759.03;5072821;28;20319;-63
2021/04/26 09:38:45;;;;;;;1999.90;999.90;;;;;;;19.36;35.29;95754.25;5073030;28;20283;-64
2021/04/26 09:41:21;;;;;;;1999.90;999.90;;;;;;;19.37;32.28;95752.41;5072719;28;20659;-63
2021/04/26 09:43:51;;;;;;;1999.90;999.90;;;;;;;19.51;33.18;95750.09;5072920;28;20265;-63
2021/04/26 09:46:20;;;;;;;1999.90;999.90;;;;;;;19.64;30.89;95743.59;5072812;28;20203;-64
2021/04/26 09:48:47;;;;;;;1999.90;999.90;;;;;;;19.75;29.88;95745.34;5072745;28;20197;-64
2021/04/26 09:51:19;;;;;;;1999.90;999.90;;;;;;;19.76;31.38;95744.25;5072475;28;20200;-63
2021/04/26 09:53:52;;;;;;;1999.90;999.90;;;;;;;19.73;31.79;95741.53;5072677;28;20193;-64
2021/04/26 09:56:22;;;;;;;1999.90;999.90;;;;;;;19.95;31.21;95740.88;5072374;28;20319;-64
2021/04/26 09:58:51;;;;;;;1999.90;999.90;;;;;;;19.87;26.61;95735.78;5072541;28;20197;-64
2021/04/26 10:01:18;;;;;;;1999.90;999.90;;;;;;;19.86;28.11;95729.00;5072495;28;20196;-64
2021/04/26 10:03:45;;;;;;;1999.90;999.90;;;;;;;19.89;28.54;95734.31;5072372;28;20200;-64
2021/04/26 10:06:14;;;;;;;1999.90;999.90;;;;;;;19.81;29.82;95734.53;5072395;28;20243;-64
2021/04/26 10:08:44;;;;;;;1999.90;999.90;;;;;;;19.84;29.17;95739.09;5072466;28;20196;-64
2021/04/26 10:11:11;;;;;;;1999.90;999.90;;;;;;;20.17;31.33;95734.88;5072419;28;20219;-63
2021/04/26 10:13:39;;;;;;;1999.90;999.90;;;;;;;20.02;29.26;95735.75;5071943;28;20311;-64
2021/04/26 10:16:12;;;;;;;1999.90;999.90;;;;;;;19.76;27.55;95731.06;5072207;28;20271;-64
2021/04/26 10:18:40;;;;;;;1999.90;999.90;;;;;;;20.01;31.93;95730.81;5072446;28;20208;-64
2021/04/26 10:21:32;;;;;;;1999.90;999.90;;;;;;;20.13;32.63;95734.03;5072069;28;20204;-64
2021/04/26 10:24:12;;;;;;;1999.90;999.90;;;;;;;20.18;33.58;95717.94;5071963;28;20200;-64
2021/04/26 10:26:44;;;;;;;1999.90;999.90;;;;;;;20.48;30.54;95706.81;5071967;28;20651;-64
2021/04/26 10:29:13;;;;;;;1999.90;999.90;;;;;;;20.60;27.04;95694.22;5071814;28;20196;-64
2021/04/26 10:32:14;;;;;;;1999.90;999.90;;;;;;;20.65;31.49;95684.47;5071749;28;20189;-64
2021/04/26 10:35:12;;;;;;;1999.90;999.90;;;;;;;20.42;32.19;95685.19;5009861;28;20836;-64
2021/04/26 10:37:40;;;;;;;1999.90;999.90;;;;;;;20.51;31.44;95680.47;5071762;28;20197;-64
2021/04/26 10:40:25;;;;;;;1999.90;999.90;;;;;;;20.46;27.42;95666.81;5071711;28;20201;-64
2021/04/26 10:42:53;;;;;;;1999.90;999.90;;;;;;;20.49;32.88;95669.50;5071593;28;20197;-64
2021/04/26 10:45:30;;;;;;;1999.90;999.90;;;;;;;20.83;31.78;95669.66;5071907;28;20203;-64
2021/04/26 10:48:13;;;;;;;1999.90;999.90;;;;;;;20.68;35.19;95666.03;5071634;28;20192;-63
2021/04/26 10:50:53;;;;;;;1999.90;999.90;;;;;;;20.80;34.77;95665.09;5071342;28;20196;-64
2021/04/26 10:53:20;;;;;;;1999.90;999.90;;;;;;;21.04;30.28;95664.69;5071480;28;20196;-64
2021/04/26 10:55:49;;;;;;;1999.90;999.90;;;;;;;21.03;27.12;95657.88;5071495;28;20236;-64
2021/04/26 10:58:42;;;;;;;1999.90;999.90;;;;;;;21.23;25.39;95659.31;5071338;28;20193;-64
2021/04/26 11:01:17;;;;;;;1999.90;999.90;;;;;;;20.84;28.89;95655.31;5068738;28;20570;-65
2021/04/26 11:03:46;;;;;;;1999.90;999.90;;;;;;;21.19;30.49;95650.59;5071060;28;20722;-64
2021/04/26 11:06:28;;;;;;;1999.90;999.90;;;;;;;21.47;31.72;95652.84;5071088;28;20200;-63